Time;durP1;ratioP1;P1;durP2;ratioP2;P2;SDS_P1;SDS_P2;PMS_P1;PMS_P2;Temp;Humidity;BMP_temperature;BMP_pressure;BME280_temperature;BME280_humidity;BME280_pressure;Samples;Min_cycle;Max_cycle;Signal;HPM_P1;HPM_P2
2021/03/14 00:03:51;;;;;;;0.70;0.70;;;;;;;2.28;82.23;95720.53;299395;213;63009;-57
2021/03/14 00:08:53;;;;;;;0.70;0.70;;;;;;;2.40;82.06;95736.34;299395;211;63004;-57
2021/03/14 00:13:55;;;;;;;0.70;0.70;;;;;;;2.38;82.12;95738.47;299395;244;63009;-57
2021/03/14 00:18:57;;;;;;;0.70;0.70;;;;;;;2.32;82.16;95728.84;299394;206;64005;-57
2021/03/14 00:23:58;;;;;;;0.80;0.80;;;;;;;2.32;82.62;95742.22;299395;280;63008;-57
2021/03/14 00:28:59;;;;;;;0.70;0.70;;;;;;;2.46;83.02;95761.22;299395;202;63004;-57
2021/03/14 00:34:00;;;;;;;0.70;0.70;;;;;;;2.55;82.49;95765.75;299395;203;63009;-58
2021/03/14 00:39:02;;;;;;;0.70;0.70;;;;;;;2.80;80.05;95777.50;299395;223;63004;-58
2021/03/14 00:44:03;;;;;;;0.70;0.70;;;;;;;2.51;81.29;95788.78;299395;202;63009;-58
2021/03/14 00:49:05;;;;;;;0.80;0.80;;;;;;;2.33;82.46;95789.34;299395;202;63005;-58
2021/03/14 00:54:06;;;;;;;0.80;0.80;;;;;;;2.03;83.13;95778.59;299395;202;63008;-57
2021/03/14 00:59:10;;;;;;;0.80;0.80;;;;;;;2.07;83.04;95774.34;299395;291;63004;-57
2021/03/14 01:04:11;;;;;;;0.80;0.80;;;;;;;1.90;83.69;95770.03;299417;216;63009;-57
2021/03/14 01:09:12;;;;;;;0.70;0.70;;;;;;;1.79;83.56;95779.09;299395;240;63005;-57
2021/03/14 01:14:13;;;;;;;0.77;0.77;;;;;;;1.93;82.38;95782.88;299395;203;63009;-57
2021/03/14 01:19:14;;;;;;;0.70;0.70;;;;;;;2.01;82.09;95801.09;299395;234;63005;-57
2021/03/14 01:24:15;;;;;;;0.70;0.70;;;;;;;1.85;83.25;95791.41;299395;208;63009;-57
2021/03/14 01:29:16;;;;;;;0.70;0.70;;;;;;;2.00;81.27;95796.81;299395;265;63004;-59
2021/03/14 01:34:17;;;;;;;0.70;0.70;;;;;;;1.90;82.08;95796.78;299395;202;63009;-57
2021/03/14 01:39:20;;;;;;;0.70;0.70;;;;;;;1.80;82.73;95796.75;299395;232;63005;-57
2021/03/14 01:44:21;;;;;;;0.70;0.70;;;;;;;1.68;84.14;95799.66;299395;196;63009;-58
2021/03/14 01:49:22;;;;;;;0.70;0.70;;;;;;;1.68;84.36;95801.53;299395;241;63005;-57
2021/03/14 01:54:26;;;;;;;0.80;0.80;;;;;;;1.72;83.77;95802.63;299395;202;63022;-57
2021/03/14 01:59:28;;;;;;;0.70;0.70;;;;;;;1.80;83.08;95812.78;299417;266;63010;-58
2021/03/14 02:04:29;;;;;;;0.70;0.70;;;;;;;1.79;82.80;95808.50;299395;230;63009;-57
2021/03/14 02:09:30;;;;;;;0.80;0.80;;;;;;;2.10;80.73;95822.75;299395;204;63005;-57
2021/03/14 02:14:33;;;;;;;0.80;0.80;;;;;;;2.09;80.81;95826.50;299395;210;63009;-57
2021/03/14 02:19:38;;;;;;;0.80;0.80;;;;;;;1.97;82.13;95848.16;299395;202;63005;-58
2021/03/14 02:24:48;;;;;;;0.80;0.80;;;;;;;2.07;80.31;95844.72;299395;214;63009;-57
2021/03/14 02:29:50;;;;;;;0.80;0.80;;;;;;;1.92;81.27;95848.13;299395;204;63004;-60
2021/03/14 02:34:59;;;;;;;0.80;0.80;;;;;;;2.03;80.91;95845.50;299395;228;63009;-57
2021/03/14 02:40:03;;;;;;;0.80;0.80;;;;;;;1.82;82.53;95844.63;299395;329;63005;-60
2021/03/14 02:45:07;;;;;;;0.80;0.80;;;;;;;1.87;82.24;95856.16;299417;199;63009;-57
2021/03/14 02:50:18;;;;;;;0.70;0.70;;;;;;;1.92;81.32;95848.13;299395;220;63005;-58
2021/03/14 02:55:22;;;;;;;0.80;0.80;;;;;;;1.75;82.59;95868.13;299395;214;63009;-56
2021/03/14 03:00:26;;;;;;;0.80;0.80;;;;;;;1.63;83.55;95876.38;299417;196;63004;-57
2021/03/14 03:05:27;;;;;;;0.80;0.80;;;;;;;1.71;82.32;95893.81;299417;209;63009;-57
2021/03/14 03:10:38;;;;;;;0.80;0.80;;;;;;;1.66;83.67;95902.59;299395;259;63005;-57
2021/03/14 03:15:40;;;;;;;0.70;0.70;;;;;;;1.47;84.29;95920.94;299395;227;63018;-57
2021/03/14 03:20:42;;;;;;;0.80;0.80;;;;;;;1.64;83.20;95924.25;299395;228;63004;-58
2021/03/14 03:25:43;;;;;;;0.70;0.70;;;;;;;1.75;82.11;95933.13;299395;266;63009;-57
2021/03/14 03:30:44;;;;;;;0.80;0.80;;;;;;;1.58;83.15;95944.00;299395;250;63005;-56
2021/03/14 03:35:46;;;;;;;0.80;0.80;;;;;;;1.56;83.39;95950.69;299395;235;63009;-57
2021/03/14 03:40:47;;;;;;;0.80;0.80;;;;;;;1.59;82.99;95960.84;299395;223;63005;-57
2021/03/14 03:45:51;;;;;;;0.80;0.80;;;;;;;1.45;83.98;95970.38;299395;197;63009;-56
2021/03/14 03:50:59;;;;;;;0.80;0.80;;;;;;;1.44;85.04;95968.78;299417;230;63004;-57
2021/03/14 03:56:02;;;;;;;0.80;0.80;;;;;;;1.65;82.55;95983.91;299395;227;63009;-56
2021/03/14 04:01:04;;;;;;;0.80;0.80;;;;;;;1.38;84.31;95997.34;299395;197;63005;-56
2021/03/14 04:06:06;;;;;;;0.70;0.70;;;;;;;1.45;83.94;96007.81;299395;255;63009;-57
2021/03/14 04:11:15;;;;;;;0.80;0.80;;;;;;;1.58;83.00;96018.06;299395;244;63005;-56
2021/03/14 04:16:18;;;;;;;0.70;0.70;;;;;;;1.37;84.39;96027.81;299395;249;63009;-56
2021/03/14 04:21:21;;;;;;;0.75;0.75;;;;;;;1.34;84.37;96033.66;299395;206;63004;-57
2021/03/14 04:26:23;;;;;;;0.80;0.80;;;;;;;1.58;82.72;96053.63;299395;267;63009;-56
2021/03/14 04:31:25;;;;;;;0.80;0.80;;;;;;;1.69;82.41;96057.19;299395;279;63005;-59
2021/03/14 04:36:26;;;;;;;0.80;0.80;;;;;;;1.55;83.12;96077.41;299395;202;63009;-58
2021/03/14 04:41:29;;;;;;;0.70;0.70;;;;;;;1.54;83.12;96076.59;299395;282;63005;-57
2021/03/14 04:46:30;;;;;;;0.70;0.70;;;;;;;1.66;82.29;96084.44;299395;223;63009;-56
2021/03/14 04:51:35;;;;;;;0.80;0.80;;;;;;;1.51;83.03;96086.97;299395;204;63004;-57
2021/03/14 04:56:38;;;;;;;0.80;0.80;;;;;;;1.64;81.44;96092.72;299395;243;63009;-58
2021/03/14 05:01:42;;;;;;;0.80;0.80;;;;;;;1.53;82.02;96098.22;299395;247;63005;-64
2021/03/14 05:06:44;;;;;;;0.80;0.80;;;;;;;1.40;82.08;96096.78;299417;243;63008;-56
2021/03/14 05:11:47;;;;;;;0.70;0.70;;;;;;;1.29;82.85;96106.59;299395;369;63004;-58
2021/03/14 05:16:49;;;;;;;0.80;0.80;;;;;;;1.37;81.76;96118.69;299395;262;63009;-57
2021/03/14 05:21:50;;;;;;;0.70;0.70;;;;;;;1.27;82.35;96118.59;299395;279;63004;-56
2021/03/14 05:26:52;;;;;;;0.80;0.80;;;;;;;1.39;81.69;96137.16;299395;263;63009;-57
2021/03/14 05:31:57;;;;;;;0.80;0.80;;;;;;;1.40;81.67;96144.09;299395;273;63005;-58
2021/03/14 05:36:58;;;;;;;0.90;0.90;;;;;;;1.41;81.36;96145.69;299417;324;63008;-58
2021/03/14 05:41:59;;;;;;;0.80;0.80;;;;;;;1.55;80.43;96146.91;299395;262;63004;-59
2021/03/14 05:47:00;;;;;;;0.80;0.80;;;;;;;1.53;80.30;96160.53;299395;228;63009;-59
2021/03/14 05:52:03;;;;;;;0.70;0.70;;;;;;;1.32;81.60;96164.88;299395;328;63008;-57
2021/03/14 05:57:06;;;;;;;0.80;0.80;;;;;;;1.43;81.35;96186.34;299395;198;63009;-58
2021/03/14 06:02:08;;;;;;;0.70;0.70;;;;;;;1.54;80.90;96196.09;299395;315;63005;-56
2021/03/14 06:07:10;;;;;;;0.80;0.80;;;;;;;1.48;81.67;96203.25;299395;199;63009;-57
2021/03/14 06:12:12;;;;;;;0.70;0.70;;;;;;;1.67;80.43;96214.41;299395;197;63004;-56
2021/03/14 06:17:13;;;;;;;0.70;0.70;;;;;;;1.43;82.11;96237.16;299395;229;63009;-58
2021/03/14 06:22:22;;;;;;;0.80;0.80;;;;;;;1.43;82.42;96239.81;299395;204;63005;-57
2021/03/14 06:27:51;;;;;;;0.80;0.80;;;;;;;1.55;81.72;96260.00;299395;196;63009;-57
2021/03/14 06:33:12;;;;;;;0.80;0.80;;;;;;;1.38;81.86;96266.53;299395;212;63005;-56
2021/03/14 06:38:27;;;;;;;0.70;0.70;;;;;;;1.42;83.02;96283.66;299395;204;63009;-57
2021/03/14 06:43:32;;;;;;;;;;;;;;;1.68;80.24;96290.91;299996;982;6000;-56
2021/03/14 06:48:33;;;;;;;0.80;0.80;;;;;;;1.54;81.38;96305.72;299400;233;63004;-56
2021/03/14 06:53:34;;;;;;;0.80;0.80;;;;;;;1.61;81.01;96322.38;299395;267;63009;-57
2021/03/14 06:58:36;;;;;;;0.80;0.80;;;;;;;1.99;77.72;96319.59;299395;207;63000;-56
2021/03/14 07:03:43;;;;;;;0.80;0.80;;;;;;;1.97;77.08;96332.41;299395;233;63009;-57
2021/03/14 07:08:45;;;;;;;0.80;0.80;;;;;;;2.01;76.27;96343.44;299395;251;63005;-57
2021/03/14 07:13:52;;;;;;;0.80;0.80;;;;;;;1.67;79.01;96345.47;299396;199;63009;-56
2021/03/14 07:18:53;;;;;;;0.70;0.70;;;;;;;1.73;78.55;96352.50;299396;222;63004;-57
2021/03/14 07:23:54;;;;;;;0.80;0.80;;;;;;;1.98;76.05;96358.13;299396;244;63009;-52
2021/03/14 07:28:55;;;;;;;0.90;0.90;;;;;;;2.13;75.95;96357.44;299396;198;63005;-60
2021/03/14 07:33:57;;;;;;;0.70;0.70;;;;;;;2.47;74.36;96366.06;299395;294;64013;-57
2021/03/14 07:38:58;;;;;;;0.77;0.77;;;;;;;2.85;74.02;96385.69;299396;245;63005;-57
2021/03/14 07:44:02;;;;;;;0.80;0.80;;;;;;;3.32;72.26;96380.41;299396;203;63009;-57
2021/03/14 07:49:04;;;;;;;0.80;0.80;;;;;;;3.09;72.32;96384.28;299396;233;63004;-58
2021/03/14 07:54:08;;;;;;;0.70;0.70;;;;;;;2.79;73.08;96389.38;299396;199;63009;-59
2021/03/14 07:59:10;;;;;;;0.80;0.80;;;;;;;2.56;74.69;96393.22;299419;253;63005;-57
2021/03/14 08:04:31;;;;;;;0.80;0.80;;;;;;;2.47;74.55;96406.25;299397;257;63009;-57
2021/03/14 08:09:50;;;;;;;0.77;0.77;;;;;;;2.56;72.13;96412.78;299396;239;63005;-58
2021/03/14 08:14:57;;;;;;;0.82;0.82;;;;;;;2.49;73.75;96422.88;299396;244;63009;-57
2021/03/14 08:19:58;;;;;;;0.80;0.80;;;;;;;2.46;75.02;96419.88;299396;194;63004;-60
2021/03/14 08:25:26;;;;;;;0.70;0.70;;;;;;;2.81;72.75;96427.44;299396;215;63009;-57
2021/03/14 08:30:46;;;;;;;0.80;0.80;;;;;;;2.62;73.83;96430.50;299396;202;63005;-57
2021/03/14 08:35:50;;;;;;;0.70;0.70;;;;;;;2.98;72.60;96423.59;299396;198;63019;-58
2021/03/14 08:41:39;;;;;;;0.70;0.70;;;;;;;2.98;73.86;96425.47;299396;274;63004;-57
2021/03/14 08:47:15;;;;;;;0.70;0.70;;;;;;;3.12;72.50;96432.00;299396;233;63009;-57
2021/03/14 08:52:18;;;;;;;0.75;0.75;;;;;;;3.22;71.79;96428.59;299419;236;63005;-57
2021/03/14 08:57:20;;;;;;;0.70;0.70;;;;;;;3.29;70.48;96435.34;299397;257;63009;-53
2021/03/14 09:02:39;;;;;;;0.80;0.80;;;;;;;3.47;69.87;96441.34;299395;238;63005;-57
2021/03/14 09:07:44;;;;;;;0.70;0.70;;;;;;;3.52;69.53;96444.06;299395;287;63009;-56
2021/03/14 09:12:58;;;;;;;0.80;0.80;;;;;;;3.62;70.01;96449.50;299395;196;63004;-56
2021/03/14 09:17:59;;;;;;;0.75;0.75;;;;;;;3.70;67.57;96451.69;299395;196;63009;-62
2021/03/14 09:23:07;;;;;;;0.80;0.80;;;;;;;3.44;70.08;96469.53;299395;267;63012;-60
2021/03/14 09:28:08;;;;;;;0.70;0.70;;;;;;;3.68;70.86;96480.66;299395;251;63009;-57
2021/03/14 09:33:09;;;;;;;0.70;0.70;;;;;;;3.77;68.10;96463.03;299395;316;63004;-59
2021/03/14 09:38:14;;;;;;;0.70;0.70;;;;;;;3.60;69.99;96473.09;299395;202;63009;-57
2021/03/14 09:43:20;;;;;;;0.70;0.70;;;;;;;3.70;68.04;96473.16;299395;213;63005;-55
2021/03/14 09:48:29;;;;;;;0.70;0.70;;;;;;;4.31;66.66;96470.78;299395;302;63009;-59
2021/03/14 09:53:32;;;;;;;0.70;0.70;;;;;;;4.38;66.96;96474.03;299395;224;63005;-57
2021/03/14 09:58:34;;;;;;;0.70;0.70;;;;;;;4.30;67.13;96482.59;299395;310;63009;-57
2021/03/14 10:03:35;;;;;;;0.70;0.70;;;;;;;4.19;65.37;96465.63;299395;220;63004;-57
2021/03/14 10:08:38;;;;;;;0.70;0.70;;;;;;;3.75;68.50;96465.16;299395;203;63009;-57
2021/03/14 10:13:42;;;;;;;0.70;0.70;;;;;;;3.83;66.40;96453.91;299395;315;63005;-57
2021/03/14 10:18:45;;;;;;;0.70;0.70;;;;;;;3.68;66.73;96464.56;299417;260;63009;-57
2021/03/14 10:23:47;;;;;;;0.70;0.70;;;;;;;3.75;66.40;96470.53;299373;214;63005;-57
2021/03/14 10:28:48;;;;;;;0.70;0.70;;;;;;;3.74;65.85;96474.28;299395;309;63009;-56
2021/03/14 10:33:50;;;;;;;0.70;0.70;;;;;;;4.07;63.52;96448.13;299395;222;63010;-63
2021/03/14 10:38:54;;;;;;;0.75;0.75;;;;;;;4.29;63.04;96448.75;299395;222;63009;-57
2021/03/14 10:44:01;;;;;;;0.70;0.70;;;;;;;4.31;63.44;96447.41;299417;295;63005;-59
2021/03/14 10:49:11;;;;;;;0.70;0.70;;;;;;;4.31;61.98;96446.59;299395;221;63009;-55
2021/03/14 10:54:17;;;;;;;0.70;0.70;;;;;;;4.24;62.51;96446.84;299395;196;63004;-58
2021/03/14 10:59:36;;;;;;;0.80;0.80;;;;;;;4.37;62.74;96457.09;299395;198;63009;-62
2021/03/14 11:04:38;;;;;;;0.70;0.70;;;;;;;4.92;61.65;96446.72;299395;345;63004;-57
2021/03/14 11:09:39;;;;;;;0.70;0.70;;;;;;;5.15;62.58;96440.84;299395;216;63009;-57
2021/03/14 11:14:40;;;;;;;0.70;0.70;;;;;;;5.32;58.80;96435.16;299395;203;63005;-58
2021/03/14 11:19:46;;;;;;;0.70;0.70;;;;;;;5.02;58.46;96441.37;299395;196;63008;-58
2021/03/14 11:24:48;;;;;;;0.70;0.70;;;;;;;5.02;57.77;96441.37;299395;233;63004;-58
2021/03/14 11:29:49;;;;;;;0.70;0.70;;;;;;;5.07;57.26;96437.88;299395;207;63009;-58
2021/03/14 11:34:50;;;;;;;0.70;0.70;;;;;;;5.20;56.80;96432.75;299395;202;63021;-58
2021/03/14 11:39:52;;;;;;;0.70;0.70;;;;;;;5.35;54.20;96435.44;299395;307;63009;-58
2021/03/14 11:44:55;;;;;;;0.70;0.70;;;;;;;5.23;55.49;96434.91;299395;333;63005;-59
2021/03/14 11:49:56;;;;;;;0.70;0.70;;;;;;;5.12;57.29;96430.62;299395;262;63009;-59
2021/03/14 11:54:58;;;;;;;0.70;0.70;;;;;;;5.17;56.71;96416.38;299395;224;63004;-57
2021/03/14 11:59:59;;;;;;;0.70;0.70;;;;;;;5.36;54.08;96410.16;299395;202;63009;-59
2021/03/14 12:05:00;;;;;;;0.70;0.70;;;;;;;5.10;56.09;96421.19;299395;299;63005;-58
2021/03/14 12:10:01;;;;;;;0.90;0.90;;;;;;;5.14;56.08;96423.09;299395;198;63009;-58
2021/03/14 12:15:03;;;;;;;0.70;0.70;;;;;;;4.95;58.45;96446.19;299395;245;63005;-58
2021/03/14 12:20:06;;;;;;;0.70;0.70;;;;;;;4.74;60.44;96463.38;299395;335;63009;-59
2021/03/14 12:25:08;;;;;;;0.80;0.80;;;;;;;4.52;62.33;96475.13;299395;278;63004;-59
2021/03/14 12:30:10;;;;;;;0.80;0.80;;;;;;;4.21;64.57;96473.41;299395;237;63017;-56
2021/03/14 12:35:12;;;;;;;0.70;0.70;;;;;;;3.91;66.86;96469.53;299395;231;63005;-58
2021/03/14 12:40:14;;;;;;;0.70;0.70;;;;;;;3.81;68.99;96468.69;299395;266;63009;-59
2021/03/14 12:45:16;;;;;;;0.70;0.70;;;;;;;3.49;71.10;96474.09;299395;212;63005;-58
2021/03/14 12:50:18;;;;;;;0.70;0.70;;;;;;;3.17;74.10;96466.88;299395;213;63009;-57
2021/03/14 12:55:19;;;;;;;0.70;0.70;;;;;;;3.20;74.27;96469.06;299395;269;63004;-58
2021/03/14 13:00:22;;;;;;;0.80;0.80;;;;;;;3.06;76.84;96462.53;299395;196;63009;-58
2021/03/14 13:05:26;;;;;;;0.80;0.80;;;;;;;2.88;76.63;96460.22;299395;197;63005;-58
2021/03/14 13:10:28;;;;;;;0.70;0.70;;;;;;;2.93;77.05;96436.13;299417;290;63008;-58
2021/03/14 13:15:29;;;;;;;0.75;0.75;;;;;;;2.91;79.33;96435.59;299395;239;63004;-58
2021/03/14 13:20:30;;;;;;;0.70;0.70;;;;;;;3.10;78.71;96436.03;299395;218;63009;-59
2021/03/14 13:25:32;;;;;;;0.70;0.70;;;;;;;3.16;77.79;96435.78;299395;202;63004;-57
2021/03/14 13:30:33;;;;;;;0.70;0.70;;;;;;;3.18;78.42;96436.34;299395;197;63009;-59
2021/03/14 13:35:34;;;;;;;0.70;0.70;;;;;;;3.27;78.28;96426.75;299394;212;64009;-59
2021/03/14 13:40:35;;;;;;;0.70;0.70;;;;;;;3.49;78.87;96431.97;299395;221;63008;-58
2021/03/14 13:45:36;;;;;;;0.70;0.70;;;;;;;3.61;76.50;96421.06;299395;198;63004;-56
2021/03/14 13:50:37;;;;;;;0.70;0.70;;;;;;;3.35;78.88;96436.19;299395;225;63009;-55
2021/03/14 13:55:38;;;;;;;0.80;0.80;;;;;;;3.23;78.45;96428.31;299395;242;63004;-55
2021/03/14 14:00:40;;;;;;;0.70;0.70;;;;;;;3.19;79.27;96435.25;299395;301;63004;-56
2021/03/14 14:05:41;;;;;;;0.80;0.80;;;;;;;3.12;79.27;96433.87;299395;332;63012;-57
2021/03/14 14:10:42;;;;;;;0.70;0.70;;;;;;;3.14;80.13;96432.53;299395;321;63008;-56
2021/03/14 14:15:45;;;;;;;0.70;0.70;;;;;;;2.96;81.48;96457.06;299395;215;63004;-57
2021/03/14 14:20:46;;;;;;;0.70;0.70;;;;;;;2.72;80.79;96461.94;299395;211;63009;-57
2021/03/14 14:25:48;;;;;;;0.70;0.70;;;;;;;2.58;81.64;96477.59;299395;228;63005;-58
2021/03/14 14:30:48;;;;;;;0.80;0.80;;;;;;;2.55;82.67;96474.63;299395;196;63009;-59
2021/03/14 14:35:49;;;;;;;0.70;0.70;;;;;;;2.65;82.80;96483.56;299395;218;63005;-57
2021/03/14 14:40:51;;;;;;;0.80;0.80;;;;;;;2.89;80.57;96483.25;299395;199;63009;-61
2021/03/14 14:45:52;;;;;;;0.70;0.70;;;;;;;2.84;82.09;96488.56;299395;219;63004;-55
2021/03/14 14:50:53;;;;;;;0.70;0.70;;;;;;;2.91;82.28;96491.84;299395;213;63019;-56
2021/03/14 14:55:57;;;;;;;0.70;0.70;;;;;;;3.15;81.82;96493.13;299395;243;63005;-56
2021/03/14 15:00:58;;;;;;;0.70;0.70;;;;;;;3.34;80.24;96502.44;299417;209;63009;-60
2021/03/14 15:05:59;;;;;;;0.70;0.70;;;;;;;3.33;80.21;96506.19;299395;226;63005;-58
2021/03/14 15:11:00;;;;;;;0.70;0.70;;;;;;;3.16;80.39;96513.53;299395;213;63009;-59
2021/03/14 15:16:03;;;;;;;0.80;0.80;;;;;;;3.32;78.98;96511.78;299395;227;63004;-65
2021/03/14 15:21:06;;;;;;;0.70;0.70;;;;;;;3.24;78.71;96518.41;299395;208;63009;-59
2021/03/14 15:26:07;;;;;;;0.75;0.75;;;;;;;3.21;78.58;96521.62;299395;208;63005;-58
2021/03/14 15:31:08;;;;;;;0.80;0.80;;;;;;;3.07;79.54;96533.03;299395;202;63009;-62
2021/03/14 15:36:10;;;;;;;0.70;0.70;;;;;;;3.01;79.05;96540.19;299395;196;63005;-61
2021/03/14 15:41:11;;;;;;;0.80;0.80;;;;;;;2.92;79.83;96536.34;299395;255;63009;-62
2021/03/14 15:46:12;;;;;;;0.70;0.70;;;;;;;2.85;80.50;96541.09;299395;217;63009;-61
2021/03/14 15:51:13;;;;;;;0.70;0.70;;;;;;;2.86;80.75;96542.72;299395;259;63009;-59
2021/03/14 15:56:14;;;;;;;0.80;0.80;;;;;;;2.68;81.74;96535.84;299395;252;63001;-58
2021/03/14 16:01:15;;;;;;;0.70;0.70;;;;;;;2.87;80.91;96541.66;299395;220;63009;-60
2021/03/14 16:06:20;;;;;;;0.70;0.70;;;;;;;2.76;81.00;96542.63;299395;214;63000;-57
2021/03/14 16:11:21;;;;;;;0.70;0.70;;;;;;;2.77;81.28;96549.59;299417;251;63009;-57
2021/03/14 16:16:22;;;;;;;0.75;0.75;;;;;;;2.97;80.45;96547.94;299395;297;63004;-57
2021/03/14 16:21:23;;;;;;;0.80;0.80;;;;;;;3.02;80.67;96552.53;299395;242;63009;-60
2021/03/14 16:26:25;;;;;;;1.10;1.10;;;;;;;3.00;79.43;96565.38;299395;242;63005;-62
2021/03/14 16:31:26;;;;;;;0.70;0.70;;;;;;;2.98;80.10;96554.09;299395;227;63008;-60
2021/03/14 16:36:27;;;;;;;0.80;0.80;;;;;;;2.98;79.05;96554.09;299395;255;63004;-58
2021/03/14 16:41:28;;;;;;;0.70;0.70;;;;;;;2.93;77.73;96535.28;299395;196;63009;-57
2021/03/14 16:46:29;;;;;;;0.70;0.70;;;;;;;2.86;78.37;96542.72;299395;230;63004;-57
2021/03/14 16:51:30;;;;;;;0.70;0.70;;;;;;;2.87;78.10;96538.97;299395;238;63009;-60
2021/03/14 16:56:31;;;;;;;0.70;0.70;;;;;;;2.68;78.94;96546.56;299395;264;63005;-59
2021/03/14 17:01:32;;;;;;;0.70;0.70;;;;;;;2.67;79.33;96561.81;299395;227;63009;-58
2021/03/14 17:06:34;;;;;;;0.70;0.70;;;;;;;2.59;79.68;96559.56;299395;293;63005;-59
2021/03/14 17:11:35;;;;;;;0.70;0.70;;;;;;;2.68;78.63;96559.94;299395;211;63009;-63
2021/03/14 17:16:36;;;;;;;1.05;1.05;;;;;;;2.64;78.82;96562.31;299395;232;63004;-57
2021/03/14 17:21:38;;;;;;;0.70;0.70;;;;;;;2.59;79.14;96564.94;299395;226;63009;-59
2021/03/14 17:26:39;;;;;;;0.90;0.90;;;;;;;2.60;79.30;96571.91;299395;257;63005;-61
2021/03/14 17:31:41;;;;;;;0.70;0.70;;;;;;;2.63;78.57;96565.25;299395;256;63008;-57
2021/03/14 17:36:42;;;;;;;0.70;0.70;;;;;;;2.65;78.41;96576.53;299395;246;63004;-59
2021/03/14 17:41:43;;;;;;;0.70;0.70;;;;;;;2.60;78.75;96579.94;299395;208;63009;-59
2021/03/14 17:46:45;;;;;;;0.70;0.70;;;;;;;2.64;78.29;96593.66;299395;215;63004;-61
2021/03/14 17:51:46;;;;;;;0.70;0.70;;;;;;;2.71;78.32;96598.81;299395;250;63009;-64
2021/03/14 17:56:47;;;;;;;0.70;0.70;;;;;;;2.58;78.31;96611.53;299395;231;63005;-56
2021/03/14 18:01:48;;;;;;;0.70;0.70;;;;;;;2.59;78.35;96610.47;299395;224;63008;-60
2021/03/14 18:06:50;;;;;;;0.73;0.73;;;;;;;2.64;78.46;96613.22;299395;218;63004;-59
2021/03/14 18:11:51;;;;;;;0.70;0.70;;;;;;;2.71;77.48;96625.63;299395;258;63009;-57
2021/03/14 18:16:54;;;;;;;0.70;0.70;;;;;;;2.71;77.74;96625.63;299395;224;63004;-58
2021/03/14 18:21:55;;;;;;;0.70;0.70;;;;;;;2.68;77.80;96638.44;299395;196;63009;-58
2021/03/14 18:26:56;;;;;;;0.70;0.70;;;;;;;2.76;76.85;96647.13;299395;248;63005;-57
2021/03/14 18:31:57;;;;;;;0.75;0.75;;;;;;;2.80;76.13;96661.63;299395;227;63008;-61
2021/03/14 18:37:00;;;;;;;0.70;0.70;;;;;;;2.72;77.04;96654.03;299395;227;63004;-56
2021/03/14 18:42:00;;;;;;;0.70;0.70;;;;;;;2.90;76.79;96667.09;299395;265;63009;-57
2021/03/14 18:47:05;;;;;;;0.70;0.70;;;;;;;2.96;76.87;96671.47;299395;213;63005;-56
2021/03/14 18:52:06;;;;;;;0.80;0.80;;;;;;;2.87;78.28;96654.19;299417;197;63009;-57
2021/03/14 18:57:07;;;;;;;0.70;0.70;;;;;;;2.65;79.09;96649.66;299395;196;63005;-57
2021/03/14 19:02:09;;;;;;;0.70;0.70;;;;;;;2.41;80.54;96647.47;299395;216;63019;-57
2021/03/14 19:07:12;;;;;;;0.70;0.70;;;;;;;2.24;81.14;96653.63;299395;257;63004;-58
2021/03/14 19:12:13;;;;;;;0.80;0.80;;;;;;;2.41;80.68;96648.28;299395;238;63009;-57
2021/03/14 19:17:14;;;;;;;0.70;0.70;;;;;;;2.25;81.29;96662.50;299395;249;63005;-57
2021/03/14 19:22:16;;;;;;;0.70;0.70;;;;;;;2.28;81.41;96664.69;299394;196;64013;-57
2021/03/14 19:27:17;;;;;;;0.80;0.80;;;;;;;2.49;80.19;96679.16;299395;253;63005;-57
2021/03/14 19:32:18;;;;;;;0.80;0.80;;;;;;;2.44;80.58;96669.19;299395;233;63009;-58
2021/03/14 19:37:19;;;;;;;0.70;0.70;;;;;;;2.57;80.41;96674.19;299395;202;63004;-59
2021/03/14 19:42:21;;;;;;;0.70;0.70;;;;;;;2.61;79.97;96675.31;299395;222;63009;-58
2021/03/14 19:47:22;;;;;;;2.67;2.58;;;;;;;2.55;80.34;96676.31;299396;215;63005;-57
2021/03/14 19:52:23;;;;;;;0.70;0.70;;;;;;;2.53;80.92;96678.41;299396;204;63004;-57
2021/03/14 19:57:24;;;;;;;0.70;0.70;;;;;;;2.69;79.86;96688.28;299396;213;63012;-58
2021/03/14 20:02:28;;;;;;;0.73;0.73;;;;;;;2.85;79.28;96697.31;299396;219;63009;-57
2021/03/14 20:07:32;;;;;;;0.70;0.70;;;;;;;2.92;79.07;96702.50;299418;227;63004;-58
2021/03/14 20:12:33;;;;;;;0.80;0.80;;;;;;;2.83;79.14;96698.63;299418;254;63009;-58
2021/03/14 20:17:34;;;;;;;0.70;0.70;;;;;;;2.69;80.30;96719.62;299396;224;63019;-58
2021/03/14 20:22:37;;;;;;;0.70;0.70;;;;;;;2.88;80.01;96701.37;299396;249;63009;-59
2021/03/14 20:27:40;;;;;;;0.80;0.80;;;;;;;2.52;81.36;96705.44;299396;211;63004;-58
2021/03/14 20:32:44;;;;;;;0.70;0.70;;;;;;;2.23;83.31;96710.09;299397;203;63009;-58
2021/03/14 20:37:44;;;;;;;0.70;0.70;;;;;;;2.13;84.67;96712.62;299419;234;63004;-57
2021/03/14 20:42:46;;;;;;;0.70;0.70;;;;;;;2.13;85.23;96709.94;299396;239;63009;-57
2021/03/14 20:47:48;;;;;;;0.70;0.70;;;;;;;2.27;83.62;96696.00;299396;202;63005;-57
2021/03/14 20:52:49;;;;;;;0.70;0.70;;;;;;;2.27;83.83;96697.84;299396;257;63008;-57
2021/03/14 20:57:50;;;;;;;0.70;0.70;;;;;;;2.44;82.41;96695.94;299396;204;63004;-57
2021/03/14 21:02:51;;;;;;;0.70;0.70;;;;;;;2.36;82.82;96704.44;299396;209;63009;-57
2021/03/14 21:07:52;;;;;;;0.70;0.70;;;;;;;2.44;82.21;96703.97;299396;227;63004;-57
2021/03/14 21:12:56;;;;;;;0.70;0.70;;;;;;;2.51;81.52;96701.94;299396;199;63009;-57
2021/03/14 21:17:59;;;;;;;0.70;0.70;;;;;;;2.47;81.43;96703.50;299418;217;63005;-58
2021/03/14 21:23:01;;;;;;;0.70;0.70;;;;;;;2.54;81.16;96706.00;299375;219;63008;-57
2021/03/14 21:28:03;;;;;;;0.70;0.70;;;;;;;2.55;80.96;96708.44;299397;208;63004;-58
2021/03/14 21:33:04;;;;;;;0.70;0.70;;;;;;;2.52;81.24;96713.47;299396;203;63009;-57
2021/03/14 21:38:06;;;;;;;0.70;0.70;;;;;;;2.63;79.33;96710.72;299395;196;63010;-57
2021/03/14 21:43:09;;;;;;;21.95;3.33;;;;;;;2.64;79.05;96712.31;299390;214;64009;-57
2021/03/14 21:48:10;;;;;;;0.70;0.70;;;;;;;2.52;80.21;96711.59;299395;237;63005;-56
2021/03/14 21:53:12;;;;;;;0.70;0.70;;;;;;;2.44;80.70;96700.50;299395;270;63009;-57
2021/03/14 21:58:12;;;;;;;0.70;0.70;;;;;;;2.49;79.98;96698.72;299395;259;63004;-58
2021/03/14 22:03:14;;;;;;;0.70;0.70;;;;;;;2.33;80.31;96694.19;299395;214;63009;-56
2021/03/14 22:08:15;;;;;;;0.70;0.70;;;;;;;2.42;79.85;96706.13;299395;225;63005;-57
2021/03/14 22:13:16;;;;;;;0.70;0.70;;;;;;;2.30;80.38;96697.38;299395;215;63009;-56
2021/03/14 22:18:17;;;;;;;0.70;0.70;;;;;;;2.38;79.76;96701.50;299395;208;63005;-56
2021/03/14 22:23:19;;;;;;;0.70;0.70;;;;;;;2.39;79.65;96693.22;299395;212;63009;-57
2021/03/14 22:28:20;;;;;;;0.70;0.70;;;;;;;2.31;80.09;96693.63;299395;208;63004;-57
2021/03/14 22:33:32;;;;;;;0.80;0.80;;;;;;;2.39;79.55;96693.22;299395;220;63009;-58
2021/03/14 22:38:33;;;;;;;0.80;0.80;;;;;;;2.47;78.44;96695.47;299395;199;63005;-57
2021/03/14 22:43:37;;;;;;;0.70;0.70;;;;;;;2.46;78.32;96693.03;299395;197;63009;-57
2021/03/14 22:48:42;;;;;;;0.70;0.70;;;;;;;2.33;78.92;96683.50;299417;212;63005;-58
2021/03/14 22:53:43;;;;;;;0.80;0.80;;;;;;;2.27;79.81;96695.19;299417;228;63009;-57
2021/03/14 22:58:44;;;;;;;0.70;0.70;;;;;;;2.41;78.78;96684.94;299395;231;63004;-56
2021/03/14 23:03:45;;;;;;;1.48;1.45;;;;;;;2.34;79.48;96680.56;299395;196;63009;-56
2021/03/14 23:08:46;;;;;;;0.70;0.70;;;;;;;2.37;79.40;96684.63;299395;200;63005;-57
2021/03/14 23:13:47;;;;;;;0.70;0.70;;;;;;;2.23;80.61;96672.63;299395;212;63009;-57
2021/03/14 23:18:48;;;;;;;0.70;0.70;;;;;;;2.49;78.33;96666.56;299395;216;63005;-57
2021/03/14 23:23:50;;;;;;;0.70;0.70;;;;;;;2.38;79.44;96659.47;299395;198;63009;-57
2021/03/14 23:28:56;;;;;;;0.70;0.70;;;;;;;2.29;80.06;96655.59;299395;202;63004;-56
2021/03/14 23:33:58;;;;;;;0.70;0.70;;;;;;;2.35;79.78;96659.97;299395;229;63009;-56
2021/03/14 23:39:01;;;;;;;0.70;0.70;;;;;;;2.33;79.59;96657.53;299395;211;63000;-56
2021/03/14 23:44:03;;;;;;;0.70;0.70;;;;;;;2.46;78.89;96661.69;299395;235;63008;-56
2021/03/14 23:49:07;;;;;;;0.73;0.73;;;;;;;2.37;79.46;96663.22;299395;199;63004;-56
2021/03/14 23:54:08;;;;;;;0.70;0.70;;;;;;;2.41;78.83;96658.97;299417;254;63009;-57
2021/03/14 23:59:11;;;;;;;0.73;0.73;;;;;;;2.45;78.81;96665.44;299373;196;63004;-57
